Time,TemperatureF,DewpointF,PressureIn,WindDirection,WindDirectionDegrees,WindSpeedMPH,WindSpeedGustMPH,Humidity,HourlyPrecipIn,Conditions,Clouds,dailyrainin,SolarRadiationWatts/m^2,SoftwareType,DateUTC
2013-10-05 00:02:00,19.0,17.0,30.46,NNW,337,0.0,0.0,92,0.00,,,0.00,0.000000,,2013-10-05 06:02:00,
2013-10-05 00:12:00,20.0,18.0,30.45,NNW,329,0.0,0.0,92,0.00,,,0.00,0.000000,,2013-10-05 06:12:00,
2013-10-05 00:43:00,20.0,18.0,30.45,NNW,329,0.0,0.0,92,0.00,,,0.00,0.000000,,2013-10-05 06:43:00,
2013-10-05 00:52:00,20.0,18.0,30.45,NNW,329,0.0,0.0,92,0.00,,,0.00,0.000000,,2013-10-05 06:52:00,
2013-10-05 01:02:00,20.0,18.0,30.45,NNW,329,0.0,0.0,92,0.00,,,0.00,0.000000,,2013-10-05 07:02:00,
2013-10-05 01:12:00,20.0,18.0,30.46,NW,312,0.0,0.0,93,0.00,,,0.00,0.000000,,2013-10-05 07:12:00,
2013-10-05 01:42:00,20.0,18.0,30.46,NW,312,0.0,0.0,93,0.00,,,0.00,0.000000,,2013-10-05 07:42:00,
2013-10-05 01:52:00,20.0,18.0,30.46,NW,312,0.0,0.0,93,0.00,,,0.00,0.000000,,2013-10-05 07:52:00,
2013-10-05 02:02:00,20.0,18.0,30.46,NW,312,0.0,0.0,93,0.00,,,0.00,0.000000,,2013-10-05 08:02:00,
2013-10-05 02:42:00,20.0,18.0,30.48,NW,310,0.0,0.0,93,0.00,,,0.00,0.000000,,2013-10-05 08:42:00,
2013-10-05 02:52:00,20.0,18.0,30.48,NW,310,0.0,0.0,93,0.00,,,0.00,0.000000,,2013-10-05 08:52:00,
2013-10-05 03:02:00,20.0,18.0,30.48,NW,310,0.0,0.0,93,0.00,,,0.00,0.000000,,2013-10-05 09:02:00,
2013-10-05 03:11:00,20.0,18.0,30.48,NW,310,0.0,0.0,93,0.00,,,0.00,0.000000,,2013-10-05 09:11:00,
2013-10-05 03:12:00,20.0,18.0,30.48,NW,306,0.0,0.0,93,0.00,,,0.00,0.000000,,2013-10-05 09:12:00,
2013-10-05 03:43:00,20.0,18.0,30.48,NW,306,0.0,0.0,93,0.00,,,0.00,0.000000,,2013-10-05 09:43:00,
2013-10-05 03:54:00,20.0,18.0,30.48,NW,306,0.0,0.0,93,0.00,,,0.00,0.000000,,2013-10-05 09:54:00,
2013-10-05 04:03:00,20.0,18.0,30.48,NW,306,0.0,0.0,93,0.00,,,0.00,0.000000,,2013-10-05 10:03:00,
2013-10-05 04:43:00,20.0,18.0,30.48,NW,309,0.0,0.0,93,0.00,,,0.00,0.000000,,2013-10-05 10:43:00,
2013-10-05 04:53:00,20.0,18.0,30.48,NW,309,0.0,0.0,93,0.00,,,0.00,0.000000,,2013-10-05 10:53:00,
2013-10-05 05:02:00,20.0,18.0,30.48,NW,309,0.0,0.0,93,0.00,,,0.00,0.000000,,2013-10-05 11:02:00,
2013-10-05 05:11:00,20.0,18.0,30.48,NW,309,0.0,0.0,93,0.00,,,0.00,0.000000,,2013-10-05 11:11:00,
2013-10-05 05:12:00,20.0,18.0,30.49,NW,317,0.0,0.0,93,0.00,,,0.00,0.000000,,2013-10-05 11:12:00,
2013-10-05 05:43:00,20.0,18.0,30.49,NW,317,0.0,0.0,93,0.00,,,0.00,0.000000,,2013-10-05 11:43:00,
2013-10-05 05:52:00,20.0,18.0,30.49,NW,317,0.0,0.0,93,0.00,,,0.00,0.000000,,2013-10-05 11:52:00,
2013-10-05 06:01:00,20.0,18.0,30.49,NW,317,0.0,0.0,93,0.00,,,0.00,0.000000,,2013-10-05 12:01:00,
2013-10-05 06:12:00,20.0,18.0,30.51,NW,306,0.0,0.0,93,0.00,,,0.00,0.000000,,2013-10-05 12:12:00,
2013-10-05 06:42:00,20.0,18.0,30.51,NW,306,0.0,0.0,93,0.00,,,0.00,0.000000,,2013-10-05 12:42:00,
2013-10-05 06:53:00,20.0,18.0,30.51,NW,306,0.0,0.0,93,0.00,,,0.00,0.000000,,2013-10-05 12:53:00,
2013-10-05 07:02:00,20.0,18.0,30.51,NW,306,0.0,0.0,93,0.00,,,0.00,0.000000,,2013-10-05 13:02:00,
2013-10-05 07:42:00,19.0,17.0,30.52,NNW,329,0.0,0.0,92,0.00,,,0.00,0.000000,,2013-10-05 13:42:00,
2013-10-05 07:52:00,19.0,17.0,30.52,NNW,329,0.0,0.0,92,0.00,,,0.00,0.000000,,2013-10-05 13:52:00,
2013-10-05 08:02:00,19.0,17.0,30.52,NNW,329,0.0,0.0,92,0.00,,,0.00,0.000000,,2013-10-05 14:02:00,
2013-10-05 08:11:00,19.0,17.0,30.52,NNW,329,0.0,0.0,92,0.00,,,0.00,0.000000,,2013-10-05 14:11:00,
2013-10-05 08:12:00,20.0,18.0,30.53,NNW,342,0.0,0.0,92,0.00,,,0.00,5.000000,,2013-10-05 14:12:00,
2013-10-05 08:42:00,20.0,18.0,30.53,NNW,342,0.0,0.0,92,0.00,,,0.00,5.000000,,2013-10-05 14:42:00,
2013-10-05 08:52:00,20.0,18.0,30.53,NNW,342,0.0,0.0,92,0.00,,,0.00,5.000000,,2013-10-05 14:52:00,
2013-10-05 09:02:00,20.0,18.0,30.53,NNW,342,0.0,0.0,92,0.00,,,0.00,5.000000,,2013-10-05 15:02:00,
2013-10-05 09:12:00,23.0,21.0,30.55,NNW,340,0.0,0.0,93,0.00,,,-99.99,23.000000,,2013-10-05 15:12:00,
2013-10-05 09:44:00,23.0,21.0,30.55,NNW,340,0.0,0.0,93,0.00,,,-99.99,23.000000,,2013-10-05 15:44:00,
2013-10-05 09:53:00,23.0,21.0,30.55,NNW,340,0.0,0.0,93,0.00,,,-99.99,23.000000,,2013-10-05 15:53:00,
2013-10-05 10:03:00,23.0,21.0,30.55,NNW,340,0.0,0.0,93,0.00,,,-99.99,23.000000,,2013-10-05 16:03:00,
2013-10-05 10:12:00,27.0,24.0,30.57,West,275,0.0,0.0,89,0.00,,,0.00,60.000000,,2013-10-05 16:12:00,
2013-10-05 10:43:00,27.0,24.0,30.57,West,275,0.0,0.0,89,0.00,,,0.00,60.000000,,2013-10-05 16:43:00,
2013-10-05 10:53:00,27.0,24.0,30.57,West,275,0.0,0.0,89,0.00,,,0.00,60.000000,,2013-10-05 16:53:00,
2013-10-05 11:02:00,27.0,24.0,30.57,West,275,0.0,0.0,89,0.00,,,0.00,60.000000,,2013-10-05 17:02:00,
2013-10-05 11:12:00,32.0,29.0,30.58,North,11,0.0,0.0,87,0.00,,,0.00,83.000000,,2013-10-05 17:12:00,
2013-10-05 11:42:00,32.0,29.0,30.58,North,11,0.0,0.0,87,0.00,,,0.00,83.000000,,2013-10-05 17:42:00,
2013-10-05 11:52:00,32.0,29.0,30.58,North,11,0.0,0.0,87,0.00,,,0.00,83.000000,,2013-10-05 17:52:00,
2013-10-05 12:02:00,32.0,29.0,30.58,North,11,0.0,0.0,87,0.00,,,0.00,83.000000,,2013-10-05 18:02:00,
2013-10-05 12:42:00,35.0,29.0,30.57,SSW,192,0.0,0.0,80,0.00,,,0.00,201.000000,,2013-10-05 18:42:00,
2013-10-05 12:52:00,35.0,29.0,30.57,SSW,192,0.0,0.0,80,0.00,,,0.00,201.000000,,2013-10-05 18:52:00,
2013-10-05 13:01:00,35.0,29.0,30.57,SSW,192,0.0,0.0,80,0.00,,,0.00,201.000000,,2013-10-05 19:01:00,
2013-10-05 13:11:00,35.0,29.0,30.57,SSW,192,0.0,0.0,80,0.00,,,0.00,201.000000,,2013-10-05 19:11:00,
2013-10-05 14:42:00,41.0,29.0,30.56,South,173,3.0,8.0,61,-99.99,,,0.00,983.000000,,2013-10-05 20:42:00,
2013-10-05 14:52:00,41.0,29.0,30.56,South,173,3.0,8.0,61,-99.99,,,0.00,983.000000,,2013-10-05 20:52:00,
2013-10-05 15:01:00,41.0,29.0,30.56,South,173,3.0,8.0,61,-99.99,,,0.00,983.000000,,2013-10-05 21:01:00,
2013-10-05 15:11:00,41.0,29.0,30.56,South,173,3.0,8.0,61,-99.99,,,0.00,983.000000,,2013-10-05 21:11:00,
2013-10-05 15:12:00,42.0,29.0,30.56,WNW,285,5.0,10.0,59,0.00,,,0.00,854.000000,,2013-10-05 21:12:00,
2013-10-05 15:44:00,42.0,29.0,30.56,WNW,285,5.0,10.0,59,0.00,,,0.00,854.000000,,2013-10-05 21:44:00,
2013-10-05 15:54:00,42.0,29.0,30.56,WNW,285,5.0,10.0,59,0.00,,,0.00,854.000000,,2013-10-05 21:54:00,
2013-10-05 16:04:00,42.0,29.0,30.56,WNW,285,5.0,10.0,59,0.00,,,0.00,854.000000,,2013-10-05 22:04:00,
2013-10-05 16:12:00,38.0,28.0,30.56,WNW,295,9.0,14.0,66,0.00,,,0.00,488.000000,,2013-10-05 22:12:00,
2013-10-05 16:42:00,38.0,28.0,30.56,WNW,295,9.0,14.0,66,0.00,,,0.00,488.000000,,2013-10-05 22:42:00,
2013-10-05 16:53:00,38.0,28.0,30.56,WNW,295,9.0,14.0,66,0.00,,,0.00,488.000000,,2013-10-05 22:53:00,
2013-10-05 17:02:00,38.0,28.0,30.56,WNW,295,9.0,14.0,66,0.00,,,0.00,488.000000,,2013-10-05 23:02:00,
2013-10-05 17:12:00,39.0,28.0,30.57,NW,305,10.0,17.0,64,0.00,,,0.00,321.000000,,2013-10-05 23:12:00,
2013-10-05 17:43:00,39.0,28.0,30.57,NW,305,10.0,17.0,64,0.00,,,0.00,321.000000,,2013-10-05 23:43:00,
2013-10-05 17:53:00,39.0,28.0,30.57,NW,305,10.0,17.0,64,0.00,,,0.00,321.000000,,2013-10-05 23:53:00,
2013-10-05 18:02:00,39.0,28.0,30.57,NW,305,10.0,17.0,64,0.00,,,0.00,321.000000,,2013-10-06 00:02:00,
2013-10-05 19:42:00,31.0,21.0,30.60,WNW,288,7.0,10.0,65,-99.99,,,0.00,26.000000,,2013-10-06 01:42:00,
2013-10-05 19:52:00,31.0,21.0,30.60,WNW,288,7.0,10.0,65,-99.99,,,0.00,26.000000,,2013-10-06 01:52:00,
2013-10-05 20:02:00,31.0,21.0,30.60,WNW,288,7.0,10.0,65,-99.99,,,0.00,26.000000,,2013-10-06 02:02:00,
2013-10-05 20:11:00,31.0,21.0,30.60,WNW,288,7.0,10.0,65,-99.99,,,0.00,26.000000,,2013-10-06 02:11:00,
2013-10-05 20:12:00,28.0,20.0,30.60,NNW,327,2.0,8.0,71,0.00,,,0.00,0.000000,,2013-10-06 02:12:00,
2013-10-05 20:42:00,28.0,20.0,30.60,NNW,327,2.0,8.0,71,0.00,,,0.00,0.000000,,2013-10-06 02:42:00,
2013-10-05 20:52:00,28.0,20.0,30.60,NNW,327,2.0,8.0,71,0.00,,,0.00,0.000000,,2013-10-06 02:52:00,
2013-10-05 21:02:00,28.0,20.0,30.60,NNW,327,2.0,8.0,71,0.00,,,0.00,0.000000,,2013-10-06 03:02:00,
2013-10-05 21:12:00,28.0,17.0,30.62,NW,320,0.0,8.0,63,0.00,,,0.00,0.000000,,2013-10-06 03:12:00,
2013-10-05 21:45:00,28.0,17.0,30.62,NW,320,0.0,8.0,63,0.00,,,0.00,0.000000,,2013-10-06 03:45:00,
2013-10-05 21:54:00,28.0,17.0,30.62,NW,320,0.0,8.0,63,0.00,,,0.00,0.000000,,2013-10-06 03:54:00,
2013-10-05 22:12:00,29.0,16.0,30.63,North,349,0.0,4.0,57,0.00,,,0.00,0.000000,,2013-10-06 04:12:00,
2013-10-05 22:44:00,29.0,16.0,30.63,North,349,0.0,4.0,57,0.00,,,0.00,0.000000,,2013-10-06 04:44:00,
2013-10-05 22:54:00,29.0,16.0,30.63,North,349,0.0,4.0,57,0.00,,,0.00,0.000000,,2013-10-06 04:54:00,
2013-10-05 23:03:00,29.0,16.0,30.63,North,349,0.0,4.0,57,0.00,,,0.00,0.000000,,2013-10-06 05:03:00,
2013-10-05 23:12:00,29.0,20.0,30.63,East,94,6.0,8.0,68,0.00,,,0.00,0.000000,,2013-10-06 05:12:00,
2013-10-05 23:43:00,29.0,20.0,30.63,East,94,6.0,8.0,68,0.00,,,0.00,0.000000,,2013-10-06 05:43:00,
2013-10-05 23:52:00,29.0,20.0,30.63,East,94,6.0,8.0,68,0.00,,,0.00,0.000000,,2013-10-06 05:52:00,